createdAt,value
2022-10-19T00:17:26.270Z,64.88
2022-10-19T00:46:16.859Z,64.93
2022-10-19T01:15:03.615Z,65
2022-10-19T01:43:52.829Z,65.03
2022-10-19T02:12:42.350Z,65.14
2022-10-19T02:41:16.948Z,65.14
2022-10-19T03:10:05.881Z,65.16
2022-10-19T03:38:54.954Z,65.11
2022-10-19T04:07:30.858Z,64.93
2022-10-19T04:36:15.608Z,65.1
2022-10-19T05:05:00.742Z,65
2022-10-19T05:33:38.450Z,65.36
2022-10-19T06:02:16.748Z,65.06
2022-10-19T06:31:01.624Z,65.07
2022-10-19T06:59:27.383Z,65
2022-10-19T07:28:03.295Z,64.87
2022-10-19T07:56:46.007Z,64.67
2022-10-19T08:25:25.802Z,64.76
2022-10-19T08:53:55.806Z,64.5
2022-10-19T09:22:28.541Z,63.94
2022-10-19T09:51:01.403Z,64.16
2022-10-19T10:19:32.436Z,64.24
2022-10-19T10:48:39.342Z,64.28
2022-10-19T11:17:05.227Z,64.53
2022-10-19T11:45:49.417Z,64.55
2022-10-19T12:14:26.103Z,64.58
2022-10-19T12:42:55.087Z,64.56
2022-10-19T13:11:29.846Z,64.49
2022-10-19T13:40:07.897Z,64.61
2022-10-19T14:08:49.930Z,65.03
2022-10-19T14:37:19.865Z,65.08
2022-10-19T15:05:58.805Z,65.04
2022-10-19T15:34:38.812Z,65.04
2022-10-19T16:03:28.000Z,65.17
2022-10-19T16:32:10.697Z,65.14
2022-10-19T17:01:04.064Z,65.12
2022-10-19T17:29:48.124Z,65.01
2022-10-19T17:58:28.688Z,64.95
2022-10-19T18:27:24.516Z,64.98
2022-10-19T18:56:12.479Z,64.92
2022-10-19T19:24:45.941Z,64.91
2022-10-19T19:53:31.951Z,64.88
2022-10-19T20:22:54.553Z,64.91
2022-10-19T20:51:42.453Z,64.87
2022-10-19T21:20:31.781Z,64.84
2022-10-19T21:49:21.261Z,64.82
2022-10-19T22:18:25.895Z,64.85
2022-10-19T22:47:07.284Z,64.93
2022-10-19T23:15:55.298Z,64.99
2022-10-19T23:44:57.373Z,65.04
